TUI6PT EDDF-LDSP
Flight info
| Callsign | TUI6PT |
|---|---|
| Flight time | N/A |
| Altitude | 33000 |
| Route | CINDY8S/18 CINDY Z74 LAMPU DCT NOMBO Y161 MAH DCT VAVOR DCT RADIZ DCT GIMIX DCT ALIVO DCT NUPSO |
| Aircraft | B38M/M-SDE1FGHILORVWXY/HB1 |
Departure
| Time | N/A |
|---|---|
| Airport | Frankfurt Main Airport (EDDF) |
Arrival
| Time | 2026-05-05 20:28 |
|---|---|
| Airport | Split Saint Jerome Airport (LDSP) |
| Time | Latitude | Longitude | Altitude | Speed | Heading |
|---|---|---|---|---|---|
| 2026-05-05 20:12 | 44.07830 | 15.89192 | 14900 ft | 373 kts | 155° |
| 2026-05-05 20:12 | 44.05531 | 15.90841 | 14484 ft | 371 kts | 155° |
| 2026-05-05 20:12 | 44.03245 | 15.92482 | 14036 ft | 367 kts | 155° |
| 2026-05-05 20:12 | 44.00994 | 15.94096 | 13557 ft | 361 kts | 155° |
| 2026-05-05 20:13 | 43.98786 | 15.95679 | 13101 ft | 354 kts | 155° |
| 2026-05-05 20:13 | 43.96649 | 15.97209 | 12688 ft | 346 kts | 155° |
| 2026-05-05 20:13 | 43.94537 | 15.98721 | 12288 ft | 337 kts | 155° |
| 2026-05-05 20:13 | 43.92483 | 16.00190 | 11917 ft | 326 kts | 155° |
| 2026-05-05 20:14 | 43.90503 | 16.01604 | 11542 ft | 315 kts | 155° |
| 2026-05-05 20:14 | 43.88582 | 16.02976 | 11175 ft | 306 kts | 156° |
| 2026-05-05 20:14 | 43.86625 | 16.03870 | 10816 ft | 290 kts | 179° |
| 2026-05-05 20:14 | 43.84684 | 16.03632 | 10523 ft | 275 kts | 194° |
| 2026-05-05 20:15 | 43.82793 | 16.03180 | 10342 ft | 277 kts | 193° |
| 2026-05-05 20:15 | 43.80892 | 16.02717 | 10071 ft | 278 kts | 193° |
| 2026-05-05 20:15 | 43.78989 | 16.02241 | 9716 ft | 276 kts | 194° |
| 2026-05-05 20:15 | 43.77144 | 16.01767 | 9368 ft | 271 kts | 194° |
| 2026-05-05 20:16 | 43.75299 | 16.01297 | 9075 ft | 270 kts | 193° |
| 2026-05-05 20:16 | 43.73435 | 16.00902 | 8661 ft | 271 kts | 192° |
| 2026-05-05 20:16 | 43.71566 | 16.00541 | 8165 ft | 271 kts | 191° |
| 2026-05-05 20:16 | 43.69705 | 16.00163 | 7680 ft | 270 kts | 191° |
| 2026-05-05 20:17 | 43.67852 | 15.99773 | 7199 ft | 269 kts | 192° |
| 2026-05-05 20:17 | 43.66010 | 15.99369 | 6717 ft | 267 kts | 192° |
| 2026-05-05 20:17 | 43.64178 | 15.98968 | 6234 ft | 266 kts | 192° |
| 2026-05-05 20:17 | 43.62379 | 15.98563 | 5729 ft | 265 kts | 192° |
| 2026-05-05 20:18 | 43.60566 | 15.98145 | 5244 ft | 263 kts | 192° |
| 2026-05-05 20:18 | 43.58775 | 15.97704 | 4891 ft | 259 kts | 193° |
| 2026-05-05 20:18 | 43.57016 | 15.97267 | 4661 ft | 257 kts | 192° |
| 2026-05-05 20:18 | 43.55265 | 15.96801 | 4399 ft | 256 kts | 192° |
| 2026-05-05 20:19 | 43.53527 | 15.96312 | 4164 ft | 254 kts | 192° |
| 2026-05-05 20:19 | 43.51806 | 15.95814 | 3917 ft | 251 kts | 192° |
| 2026-05-05 20:19 | 43.50107 | 15.95292 | 3671 ft | 249 kts | 193° |
| 2026-05-05 20:19 | 43.48420 | 15.94765 | 3429 ft | 248 kts | 192° |
| 2026-05-05 20:20 | 43.46773 | 15.94245 | 3276 ft | 246 kts | 192° |
| 2026-05-05 20:20 | 43.45113 | 15.93713 | 3141 ft | 243 kts | 193° |
| 2026-05-05 20:20 | 43.43567 | 15.92805 | 2988 ft | 244 kts | 217° |
| 2026-05-05 20:20 | 43.42400 | 15.91124 | 2869 ft | 244 kts | 227° |
| 2026-05-05 20:21 | 43.41230 | 15.89520 | 2780 ft | 231 kts | 209° |
| 2026-05-05 20:21 | 43.39751 | 15.88941 | 2712 ft | 218 kts | 176° |
| 2026-05-05 20:21 | 43.38320 | 15.89591 | 2756 ft | 224 kts | 144° |
| 2026-05-05 20:21 | 43.37334 | 15.91258 | 2780 ft | 232 kts | 115° |
| 2026-05-05 20:22 | 43.37070 | 15.93433 | 2768 ft | 239 kts | 92° |
| 2026-05-05 20:22 | 43.37427 | 15.95682 | 2756 ft | 245 kts | 69° |
| 2026-05-05 20:22 | 43.38198 | 15.97778 | 2802 ft | 247 kts | 65° |
| 2026-05-05 20:22 | 43.39000 | 15.99840 | 2791 ft | 238 kts | 64° |
| 2026-05-05 20:23 | 43.39767 | 16.01785 | 2790 ft | 224 kts | 65° |
| 2026-05-05 20:23 | 43.40492 | 16.03616 | 2764 ft | 214 kts | 65° |
| 2026-05-05 20:23 | 43.41173 | 16.05423 | 2769 ft | 212 kts | 70° |
| 2026-05-05 20:23 | 43.41782 | 16.07264 | 2787 ft | 213 kts | 66° |
| 2026-05-05 20:24 | 43.42508 | 16.09006 | 2868 ft | 213 kts | 61° |
| 2026-05-05 20:24 | 43.43310 | 16.10653 | 2859 ft | 199 kts | 57° |
| 2026-05-05 20:24 | 43.44108 | 16.12164 | 2824 ft | 193 kts | 57° |
| 2026-05-05 20:24 | 43.44904 | 16.13622 | 2697 ft | 188 kts | 56° |
| 2026-05-05 20:25 | 43.45681 | 16.15026 | 2474 ft | 181 kts | 55° |
| 2026-05-05 20:25 | 43.46433 | 16.16371 | 2289 ft | 171 kts | 57° |
| 2026-05-05 20:25 | 43.47128 | 16.17614 | 2086 ft | 155 kts | 59° |
| 2026-05-05 20:25 | 43.47544 | 16.18359 | 1974 ft | 145 kts | 60° |
| 2026-05-05 20:26 | 43.48148 | 16.19458 | 1811 ft | 144 kts | 57° |
| 2026-05-05 20:26 | 43.48757 | 16.20539 | 1595 ft | 142 kts | 56° |
| 2026-05-05 20:26 | 43.49566 | 16.21983 | 1345 ft | 143 kts | 53° |
| 2026-05-05 20:26 | 43.50173 | 16.23078 | 1126 ft | 145 kts | 52° |
| 2026-05-05 20:27 | 43.50574 | 16.23802 | 1001 ft | 142 kts | 52° |
| 2026-05-05 20:27 | 43.51174 | 16.24881 | 798 ft | 142 kts | 52° |
| 2026-05-05 20:27 | 43.51780 | 16.25973 | 590 ft | 143 kts | 52° |
| 2026-05-05 20:27 | 43.52377 | 16.27057 | 402 ft | 141 kts | 51° |
| 2026-05-05 20:28 | 43.52971 | 16.28131 | 199 ft | 139 kts | 51° |
| 2026-05-05 20:28 | 43.53537 | 16.29153 | 85 ft | 124 kts | 52° |
| 2026-05-05 20:28 | 43.54030 | 16.30043 | 61 ft | 26 kts | 53° |
| 2026-05-05 20:28 | 43.54040 | 16.30110 | 66 ft | 6 kts | 143° |
| 2026-05-05 20:29 | 43.54006 | 16.30100 | 65 ft | 9 kts | 196° |
| 2026-05-05 20:29 | 43.53925 | 16.30066 | 70 ft | 11 kts | 202° |
| 2026-05-05 20:29 | 43.53866 | 16.29990 | 70 ft | 13 kts | 233° |
| 2026-05-05 20:29 | 43.53810 | 16.29885 | 70 ft | 15 kts | 233° |
| 2026-05-05 20:30 | 43.53763 | 16.29806 | 70 ft | 7 kts | 214° |
| 2026-05-05 20:30 | 43.53751 | 16.29812 | 63 ft | 2 kts | 121° |
| 2026-05-05 20:30 | 43.53737 | 16.29851 | 70 ft | 6 kts | 115° |
| 2026-05-05 20:30 | 43.53730 | 16.29870 | 67 ft | 0 kts | 116° |
| 2026-05-05 20:31 | 43.53730 | 16.29872 | 67 ft | 0 kts | 116° |